Time;durP1;ratioP1;P1;durP2;ratioP2;P2;SDS_P1;SDS_P2;PMS_P1;PMS_P2;Temp;Humidity;BMP_temperature;BMP_pressure;BME280_temperature;BME280_humidity;BME280_pressure;Samples;Min_cycle;Max_cycle;Signal;HPM_P1;HPM_P2
2022/07/06 00:00:43;;;;;;;1.15;0.38;;;14.20;99.90;;;;;;5053489;28;20043;-75
2022/07/06 00:03:08;;;;;;;2.95;0.50;;;14.20;99.90;;;;;;5094406;28;20127;-75
2022/07/06 00:05:34;;;;;;;1.08;0.60;;;14.20;99.90;;;;;;5077235;28;20044;-75
2022/07/06 00:07:59;;;;;;;4.03;0.40;;;14.20;99.90;;;;;;5092336;28;20551;-75
2022/07/06 00:10:25;;;;;;;2.40;0.55;;;14.30;99.90;;;;;;5076781;28;20068;-75
2022/07/06 00:12:51;;;;;;;1.63;0.35;;;14.30;99.90;;;;;;5059310;28;20131;-75
2022/07/06 00:15:16;;;;;;;1.45;0.60;;;14.20;99.90;;;;;;5092222;28;20044;-75
2022/07/06 00:17:42;;;;;;;0.98;0.32;;;14.30;99.90;;;;;;5061131;28;20047;-75
2022/07/06 00:20:08;;;;;;;2.38;0.45;;;14.30;99.90;;;;;;5043159;28;20063;-75
2022/07/06 00:22:34;;;;;;;0.77;0.38;;;14.30;99.90;;;;;;5067068;28;20509;-75
2022/07/06 00:24:59;;;;;;;0.90;0.40;;;14.30;99.90;;;;;;5062619;28;20032;-75
2022/07/06 00:27:25;;;;;;;0.40;0.30;;;14.30;99.90;;;;;;5058051;28;20460;-75
2022/07/06 00:29:50;;;;;;;1.80;0.50;;;14.20;99.90;;;;;;5043547;28;20124;-75
2022/07/06 00:32:16;;;;;;;2.00;0.43;;;14.20;99.90;;;;;;5060656;28;20041;-75
2022/07/06 00:34:41;;;;;;;0.65;0.30;;;14.20;99.90;;;;;;5054848;28;20490;-76
2022/07/06 00:37:07;;;;;;;3.70;0.50;;;14.20;99.90;;;;;;5088971;28;20040;-75
2022/07/06 00:39:34;;;;;;;1.42;0.50;;;14.20;99.90;;;;;;5058355;28;20051;-75
2022/07/06 00:41:59;;;;;;;2.33;0.32;;;14.20;99.90;;;;;;5091257;28;20032;-75
2022/07/06 00:44:25;;;;;;;1.77;0.30;;;14.10;99.90;;;;;;5059170;28;20036;-75
2022/07/06 00:46:51;;;;;;;0.73;0.25;;;14.10;99.90;;;;;;5060225;28;20124;-75
2022/07/06 00:52:01;;;;;;;0.35;0.25;;;14.10;99.90;;;;;;5058986;28;20048;-75
2022/07/06 00:54:31;;;;;;;1.05;0.52;;;14.10;99.90;;;;;;5058861;28;20037;-75
2022/07/06 00:56:57;;;;;;;0.10;0.10;;;14.00;99.90;;;;;;5057808;28;20479;-75
2022/07/06 00:59:24;;;;;;;4.38;0.60;;;14.10;99.90;;;;;;5044784;28;20044;-75
2022/07/06 01:01:50;;;;;;;1.00;0.50;;;14.00;99.90;;;;;;5058299;28;20048;-75
2022/07/06 01:04:16;;;;;;;0.38;0.30;;;14.00;99.90;;;;;;5057906;28;20367;-75
2022/07/06 01:06:42;;;;;;;1.80;0.40;;;14.00;99.90;;;;;;5058915;28;20033;-75
2022/07/06 01:09:08;;;;;;;0.40;0.30;;;14.00;99.90;;;;;;5035044;28;20093;-75
2022/07/06 01:11:34;;;;;;;2.25;0.50;;;14.00;99.90;;;;;;5057313;28;20591;-75
2022/07/06 01:14:00;;;;;;;0.50;0.32;;;14.00;99.90;;;;;;5057181;28;20040;-75
2022/07/06 01:16:26;;;;;;;0.57;0.40;;;14.00;99.90;;;;;;5057142;28;20044;-75
2022/07/06 01:18:51;;;;;;;1.45;0.43;;;14.00;99.90;;;;;;5072362;28;20040;-75
2022/07/06 01:21:17;;;;;;;0.45;0.40;;;14.00;99.90;;;;;;5092142;28;20102;-75
2022/07/06 01:23:45;;;;;;;0.82;0.25;;;14.00;99.90;;;;;;5055146;28;20037;-75
2022/07/06 01:26:19;;;;;;;0.60;0.32;;;14.00;99.90;;;;;;5072442;28;20498;-75
2022/07/06 01:28:45;;;;;;;1.30;0.40;;;14.00;99.90;;;;;;5090491;28;20041;-75
2022/07/06 01:31:29;;;;;;;4.05;0.40;;;14.00;99.90;;;;;;5058666;28;20141;-75
2022/07/06 01:33:56;;;;;;;0.38;0.30;;;14.00;99.90;;;;;;5088228;27;20568;-75
2022/07/06 01:36:22;;;;;;;3.20;0.43;;;14.00;99.90;;;;;;5045769;28;20076;-75
2022/07/06 01:38:52;;;;;;;0.68;0.30;;;14.00;99.90;;;;;;5057234;28;20132;-75
2022/07/06 01:41:19;;;;;;;0.60;0.50;;;14.00;99.90;;;;;;5056355;28;20040;-74
2022/07/06 01:43:45;;;;;;;0.45;0.30;;;14.00;99.90;;;;;;5044450;28;20037;-75
2022/07/06 01:46:11;;;;;;;0.43;0.20;;;14.00;99.90;;;;;;5071696;28;20044;-75
2022/07/06 01:48:37;;;;;;;0.20;0.20;;;14.00;99.90;;;;;;5071652;28;20037;-75
2022/07/06 01:51:04;;;;;;;1.73;0.40;;;14.00;99.90;;;;;;5057745;28;20508;-75
2022/07/06 01:53:30;;;;;;;0.55;0.30;;;14.00;99.90;;;;;;5092037;28;20094;-76
2022/07/06 01:55:55;;;;;;;1.08;0.45;;;14.00;99.90;;;;;;5043291;28;20688;-75
2022/07/06 01:58:21;;;;;;;0.77;0.55;;;14.00;99.90;;;;;;5056402;28;20119;-76
2022/07/06 02:00:47;;;;;;;2.03;0.40;;;13.90;99.90;;;;;;5043100;28;20037;-75
2022/07/06 02:03:13;;;;;;;0.45;0.22;;;13.90;99.90;;;;;;5060143;28;20051;-75
2022/07/06 02:05:38;;;;;;;0.63;0.30;;;13.80;99.90;;;;;;5055283;28;20098;-75
2022/07/06 02:08:04;;;;;;;0.65;0.52;;;13.90;99.90;;;;;;5059100;28;20032;-75
2022/07/06 02:10:29;;;;;;;1.00;0.40;;;13.90;99.90;;;;;;5057815;28;20025;-75
2022/07/06 02:12:55;;;;;;;1.90;0.57;;;13.90;99.90;;;;;;5053367;28;20502;-75
2022/07/06 02:15:21;;;;;;;0.10;0.10;;;13.90;99.90;;;;;;5056140;28;20051;-75
2022/07/06 02:17:46;;;;;;;1.77;0.80;;;13.90;99.90;;;;;;5052322;28;20055;-75
2022/07/06 02:20:12;;;;;;;1.35;0.22;;;13.90;99.90;;;;;;5052405;28;20047;-75
2022/07/06 02:22:37;;;;;;;0.77;0.55;;;13.90;99.90;;;;;;5055981;28;20037;-75
2022/07/06 02:25:04;;;;;;;0.63;0.30;;;13.90;99.90;;;;;;5059424;28;20036;-75
2022/07/06 02:27:29;;;;;;;3.85;0.85;;;13.90;99.90;;;;;;5057021;28;20436;-75
2022/07/06 02:29:55;;;;;;;0.38;0.28;;;13.90;99.90;;;;;;5090428;28;20048;-76
2022/07/06 02:32:20;;;;;;;1.20;0.40;;;13.90;99.90;;;;;;5071899;28;20047;-75
2022/07/06 02:34:46;;;;;;;0.38;0.38;;;14.00;99.90;;;;;;5058924;28;20032;-75
2022/07/06 02:37:12;;;;;;;4.57;0.73;;;13.90;99.90;;;;;;5039329;28;20048;-75
2022/07/06 02:39:37;;;;;;;0.75;0.25;;;13.90;99.90;;;;;;5040568;28;20029;-74
2022/07/06 02:42:03;;;;;;;0.43;0.40;;;14.00;99.90;;;;;;5056238;28;20092;-75
2022/07/06 02:44:29;;;;;;;0.60;0.30;;;14.00;99.90;;;;;;5091424;28;20036;-75
2022/07/06 02:46:54;;;;;;;2.17;0.70;;;14.00;99.90;;;;;;5057730;28;20632;-75
2022/07/06 02:49:20;;;;;;;0.40;0.25;;;14.00;99.90;;;;;;5058271;28;20036;-75
2022/07/06 02:51:45;;;;;;;3.17;0.73;;;14.00;99.90;;;;;;5073829;28;20117;-75
2022/07/06 02:54:11;;;;;;;0.47;0.30;;;14.00;99.90;;;;;;5073853;28;20040;-75
2022/07/06 02:56:37;;;;;;;0.77;0.40;;;14.00;99.90;;;;;;5034900;28;20055;-75
2022/07/06 02:59:02;;;;;;;0.77;0.40;;;14.00;99.90;;;;;;5056640;28;20068;-75
2022/07/06 03:01:28;;;;;;;0.88;0.40;;;13.90;99.90;;;;;;5058444;28;20033;-75
2022/07/06 03:03:54;;;;;;;0.20;0.20;;;13.90;99.90;;;;;;5063459;28;20068;-75
2022/07/06 03:06:19;;;;;;;0.88;0.40;;;14.00;99.90;;;;;;5039428;28;20041;-75
2022/07/06 03:08:45;;;;;;;0.82;0.40;;;14.00;99.90;;;;;;5062108;28;20048;-75
2022/07/06 03:11:10;;;;;;;1.17;0.43;;;14.00;99.90;;;;;;5058444;28;20399;-75
2022/07/06 03:13:36;;;;;;;0.50;0.22;;;14.00;99.90;;;;;;5048023;28;20048;-75
2022/07/06 03:16:02;;;;;;;0.70;0.52;;;14.00;99.90;;;;;;5061234;28;20520;-75
2022/07/06 03:18:27;;;;;;;0.70;0.52;;;14.00;99.90;;;;;;5060159;28;20052;-75
2022/07/06 03:20:53;;;;;;;0.77;0.30;;;14.00;99.90;;;;;;5095052;28;20041;-75
2022/07/06 03:23:19;;;;;;;1.50;0.30;;;14.00;99.90;;;;;;5059953;28;20044;-74
2022/07/06 03:25:45;;;;;;;1.98;0.30;;;14.00;99.90;;;;;;5053615;28;20037;-75
2022/07/06 03:28:11;;;;;;;1.80;0.70;;;14.00;99.90;;;;;;5061767;28;20068;-75
2022/07/06 03:30:36;;;;;;;0.93;0.30;;;14.00;99.90;;;;;;5058737;28;20068;-75
2022/07/06 03:33:02;;;;;;;0.50;0.30;;;14.00;99.90;;;;;;5064204;28;20040;-75
2022/07/06 03:35:28;;;;;;;1.13;0.40;;;14.00;99.90;;;;;;5043172;28;20041;-75
2022/07/06 03:37:53;;;;;;;1.30;0.50;;;14.00;99.90;;;;;;5060161;28;20044;-75
2022/07/06 03:40:19;;;;;;;0.30;0.20;;;14.00;99.90;;;;;;5060703;28;20043;-75
2022/07/06 03:42:44;;;;;;;0.28;0.20;;;14.00;99.90;;;;;;5058864;28;20037;-75
2022/07/06 03:45:10;;;;;;;1.27;0.55;;;14.00;99.90;;;;;;5058110;28;20268;-75
2022/07/06 03:47:36;;;;;;;1.05;0.30;;;14.00;99.90;;;;;;5040367;28;20406;-75
2022/07/06 03:50:01;;;;;;;0.55;0.40;;;14.10;99.90;;;;;;5044165;28;20082;-75
2022/07/06 03:52:27;;;;;;;0.50;0.22;;;14.00;99.90;;;;;;5057854;28;20051;-75
2022/07/06 03:54:52;;;;;;;0.55;0.30;;;14.00;99.90;;;;;;5044005;28;20405;-75
2022/07/06 03:57:18;;;;;;;0.70;0.40;;;14.00;99.90;;;;;;5062184;28;20154;-75
2022/07/06 03:59:44;;;;;;;0.77;0.40;;;14.00;99.90;;;;;;5060908;28;20478;-75
2022/07/06 04:02:09;;;;;;;2.25;0.57;;;14.00;99.90;;;;;;5042650;28;20044;-75
2022/07/06 04:04:35;;;;;;;0.88;0.45;;;14.00;99.90;;;;;;5058198;28;20033;-75
2022/07/06 04:07:00;;;;;;;1.17;0.32;;;14.00;99.90;;;;;;5076462;28;20748;-75
2022/07/06 04:09:26;;;;;;;1.75;0.70;;;14.00;99.90;;;;;;5093829;28;20037;-75
2022/07/06 04:11:52;;;;;;;1.30;0.28;;;14.00;99.90;;;;;;5059254;28;20071;-75
2022/07/06 04:14:18;;;;;;;0.43;0.20;;;14.00;99.90;;;;;;5060654;28;20277;-75
2022/07/06 04:16:43;;;;;;;1.67;0.40;;;13.90;99.90;;;;;;5057738;28;21231;-75
2022/07/06 04:19:09;;;;;;;1.20;0.52;;;14.00;99.90;;;;;;5052832;28;20644;-75
2022/07/06 04:21:35;;;;;;;0.50;0.22;;;14.00;99.90;;;;;;5094923;28;20044;-75
2022/07/06 04:24:00;;;;;;;0.50;0.30;;;14.10;99.90;;;;;;5076811;28;20044;-75
2022/07/06 04:26:26;;;;;;;0.45;0.22;;;14.10;99.90;;;;;;5042023;28;20032;-75
2022/07/06 04:28:51;;;;;;;0.82;0.40;;;14.20;99.90;;;;;;5057320;28;21584;-75
2022/07/06 04:31:17;;;;;;;1.02;0.32;;;14.20;99.90;;;;;;5095503;28;20109;-75
2022/07/06 04:33:43;;;;;;;0.17;0.10;;;14.20;99.90;;;;;;5092417;28;20410;-75
2022/07/06 04:36:11;;;;;;;1.25;0.50;;;14.20;99.90;;;;;;5058515;28;20032;-75
2022/07/06 04:38:37;;;;;;;0.85;0.30;;;14.20;99.90;;;;;;5059870;28;20048;-75
2022/07/06 04:41:03;;;;;;;0.63;0.40;;;14.20;99.90;;;;;;5056414;28;20391;-75
2022/07/06 04:43:29;;;;;;;1.02;0.40;;;14.20;99.90;;;;;;5059386;28;20064;-75
2022/07/06 04:45:54;;;;;;;1.30;0.52;;;14.30;99.90;;;;;;5073253;28;20432;-75
2022/07/06 04:48:20;;;;;;;0.80;0.30;;;14.30;99.90;;;;;;5063520;28;20029;-75
2022/07/06 04:50:46;;;;;;;2.67;0.45;;;14.30;99.90;;;;;;5089294;27;20119;-75
2022/07/06 04:53:12;;;;;;;0.45;0.28;;;14.30;99.90;;;;;;5061720;28;20052;-75
2022/07/06 04:55:37;;;;;;;1.35;0.30;;;14.30;99.90;;;;;;5040539;28;20529;-75
2022/07/06 04:58:03;;;;;;;1.40;0.50;;;14.40;99.90;;;;;;5056868;28;20462;-75
2022/07/06 05:00:29;;;;;;;0.90;0.43;;;14.30;99.90;;;;;;5075419;28;20505;-75
2022/07/06 05:02:55;;;;;;;0.57;0.35;;;14.30;99.90;;;;;;5057665;28;20029;-75
2022/07/06 05:05:20;;;;;;;3.63;0.30;;;14.40;99.90;;;;;;5058764;28;20037;-74
2022/07/06 05:07:46;;;;;;;0.65;0.40;;;14.40;99.90;;;;;;5050084;28;20032;-75
2022/07/06 05:10:12;;;;;;;0.35;0.20;;;14.40;99.90;;;;;;5058890;28;20028;-75
2022/07/06 05:12:37;;;;;;;1.30;0.28;;;14.40;99.90;;;;;;5055039;28;20049;-75
2022/07/06 05:15:04;;;;;;;2.72;0.63;;;14.40;99.90;;;;;;5091850;28;20040;-75
2022/07/06 05:17:29;;;;;;;0.70;0.40;;;14.40;99.90;;;;;;5058035;28;20041;-75
2022/07/06 05:19:55;;;;;;;0.60;0.38;;;14.40;99.90;;;;;;5092081;28;20044;-75
2022/07/06 05:22:21;;;;;;;1.00;0.40;;;14.40;99.90;;;;;;5058126;28;20036;-75
2022/07/06 05:24:46;;;;;;;0.70;0.40;;;14.50;99.90;;;;;;5056833;28;20041;-75
2022/07/06 05:27:12;;;;;;;3.60;0.30;;;14.50;99.90;;;;;;5071397;28;20036;-75
2022/07/06 05:29:38;;;;;;;0.35;0.25;;;14.50;99.90;;;;;;5057273;28;20136;-75
2022/07/06 05:32:03;;;;;;;0.65;0.40;;;14.50;99.90;;;;;;5059231;28;20597;-75
2022/07/06 05:34:29;;;;;;;1.25;0.25;;;14.60;99.90;;;;;;5074591;28;20044;-75
2022/07/06 05:36:55;;;;;;;2.58;0.30;;;14.60;99.90;;;;;;5055069;28;20044;-75
2022/07/06 05:39:21;;;;;;;0.38;0.28;;;14.60;99.90;;;;;;5058178;28;20043;-67
2022/07/06 05:41:47;;;;;;;1.35;0.20;;;14.60;99.90;;;;;;5042201;28;20119;-75
2022/07/06 05:44:12;;;;;;;0.82;0.40;;;14.60;99.90;;;;;;5062900;28;20493;-75
2022/07/06 05:46:38;;;;;;;3.20;0.47;;;14.60;99.90;;;;;;5074515;28;20071;-77
2022/07/06 05:51:49;;;;;;;0.13;0.10;;;14.70;99.90;;;;;;5058080;28;20806;-74
2022/07/06 05:54:15;;;;;;;0.50;0.20;;;14.70;99.90;;;;;;5054713;28;20539;-75
2022/07/06 05:56:40;;;;;;;0.30;0.20;;;14.80;99.90;;;;;;5056249;28;20046;-74
2022/07/06 05:59:06;;;;;;;2.65;0.28;;;14.90;99.90;;;;;;5052142;28;20048;-75
2022/07/06 06:01:32;;;;;;;0.28;0.10;;;14.80;99.90;;;;;;5073658;28;20036;-75
2022/07/06 06:03:59;;;;;;;0.50;0.30;;;14.90;99.90;;;;;;5057656;28;20052;-75
2022/07/06 06:06:25;;;;;;;0.85;0.32;;;14.90;99.90;;;;;;5036979;28;20423;-75
2022/07/06 06:08:51;;;;;;;3.00;0.47;;;14.90;99.90;;;;;;5041749;28;20445;-75
2022/07/06 06:11:16;;;;;;;0.65;0.20;;;14.90;99.90;;;;;;5055096;28;20037;-75
2022/07/06 06:13:42;;;;;;;0.57;0.30;;;14.90;99.90;;;;;;5072376;28;20036;-76
2022/07/06 06:16:07;;;;;;;0.10;0.10;;;14.90;99.90;;;;;;5087558;28;20044;-75
2022/07/06 06:18:33;;;;;;;0.43;0.20;;;14.90;99.90;;;;;;5072399;28;20406;-75
2022/07/06 06:20:59;;;;;;;0.73;0.20;;;14.90;99.90;;;;;;5054369;28;20428;-74
2022/07/06 06:23:24;;;;;;;0.10;0.10;;;14.90;99.90;;;;;;5053905;28;20043;-75
2022/07/06 06:25:50;;;;;;;0.20;0.20;;;14.90;99.90;;;;;;5050614;28;20058;-75
2022/07/06 06:28:16;;;;;;;0.47;0.10;;;14.80;99.90;;;;;;5057706;28;20021;-75
2022/07/06 06:30:41;;;;;;;0.57;0.30;;;14.80;99.90;;;;;;5061671;28;20657;-75
2022/07/06 06:33:15;;;;;;;0.80;0.10;;;14.80;99.90;;;;;;5076339;28;20086;-75
2022/07/06 06:35:43;;;;;;;0.20;0.17;;;14.80;99.90;;;;;;5079777;28;20130;-76
2022/07/06 06:38:09;;;;;;;2.03;0.30;;;14.70;99.90;;;;;;5062850;28;20058;-76
2022/07/06 06:40:35;;;;;;;6.32;0.38;;;14.80;99.90;;;;;;5047501;28;20486;-76
2022/07/06 06:43:00;;;;;;;0.20;0.10;;;14.80;99.90;;;;;;5063828;28;20520;-75
2022/07/06 06:45:26;;;;;;;0.98;0.30;;;14.90;99.90;;;;;;5062793;28;20024;-76
2022/07/06 06:47:52;;;;;;;0.13;0.10;;;15.10;99.90;;;;;;5065876;28;20036;-75
2022/07/06 06:50:18;;;;;;;2.53;0.20;;;15.20;99.90;;;;;;5044312;28;20577;-76
2022/07/06 06:52:43;;;;;;;0.77;0.28;;;15.30;99.90;;;;;;5063367;28;20040;-75
2022/07/06 06:55:09;;;;;;;0.88;0.25;;;15.30;99.90;;;;;;5061868;28;20044;-75
2022/07/06 06:57:35;;;;;;;0.38;0.10;;;15.50;99.90;;;;;;5062838;28;20037;-75
2022/07/06 07:00:01;;;;;;;0.47;0.22;;;15.50;99.90;;;;;;5046582;28;20278;-75
2022/07/06 07:02:26;;;;;;;0.17;0.10;;;15.60;99.90;;;;;;5057772;28;20029;-75
2022/07/06 07:04:52;;;;;;;0.10;0.10;;;15.70;99.90;;;;;;5061729;28;20033;-75
2022/07/06 07:07:18;;;;;;;0.30;0.20;;;15.70;99.90;;;;;;5099575;28;20378;-75
2022/07/06 07:09:43;;;;;;;1.85;0.25;;;15.80;99.90;;;;;;5064574;28;20662;-75
2022/07/06 07:12:10;;;;;;;0.45;0.25;;;15.80;99.90;;;;;;5076542;28;20116;-75
2022/07/06 07:14:36;;;;;;;0.30;0.15;;;15.80;99.90;;;;;;5056680;28;20044;-75
2022/07/06 07:17:01;;;;;;;0.13;0.10;;;15.80;99.90;;;;;;5060485;28;20088;-75
2022/07/06 07:19:27;;;;;;;1.20;0.20;;;15.70;99.90;;;;;;5064674;28;20045;-75
2022/07/06 07:21:53;;;;;;;0.30;0.20;;;15.60;99.90;;;;;;5045025;28;20456;-75
2022/07/06 07:24:18;;;;;;;0.70;0.20;;;15.50;99.90;;;;;;5062029;28;20042;-75
2022/07/06 07:26:44;;;;;;;0.75;0.30;;;15.60;99.90;;;;;;5061482;28;20054;-75
2022/07/06 07:29:09;;;;;;;1.50;0.13;;;15.60;99.90;;;;;;5063450;28;20047;-76
2022/07/06 07:31:35;;;;;;;1.58;0.30;;;15.60;99.90;;;;;;5064403;28;20094;-76
2022/07/06 07:34:01;;;;;;;0.63;0.15;;;15.70;99.90;;;;;;5063728;28;20102;-75
2022/07/06 07:36:26;;;;;;;0.28;0.28;;;15.70;99.90;;;;;;5063809;28;20398;-76
2022/07/06 07:38:52;;;;;;;0.22;0.20;;;15.80;99.90;;;;;;5063878;28;20050;-75
2022/07/06 07:41:18;;;;;;;0.20;0.20;;;15.90;99.90;;;;;;5102544;28;20068;-76
2022/07/06 07:43:43;;;;;;;0.40;0.10;;;16.00;99.90;;;;;;5066884;28;20437;-75
2022/07/06 07:46:09;;;;;;;0.15;0.10;;;16.10;99.90;;;;;;5063597;28;20039;-76
2022/07/06 07:48:35;;;;;;;2.40;0.10;;;16.20;99.90;;;;;;5082093;28;20120;-76
2022/07/06 07:51:01;;;;;;;0.88;0.20;;;16.20;99.90;;;;;;5100936;28;20501;-76
2022/07/06 07:53:26;;;;;;;0.47;0.17;;;16.30;99.90;;;;;;5048629;28;20043;-76
2022/07/06 07:55:52;;;;;;;0.22;0.10;;;16.30;99.90;;;;;;5099944;28;20048;-76
2022/07/06 07:58:19;;;;;;;1.02;0.20;;;16.40;99.90;;;;;;5103066;28;20493;-76
2022/07/06 08:00:45;;;;;;;0.88;0.32;;;16.60;99.90;;;;;;5066765;28;20127;-76
2022/07/06 08:03:11;;;;;;;0.75;0.20;;;16.70;99.20;;;;;;5068598;28;20143;-76
2022/07/06 08:05:37;;;;;;;1.05;0.20;;;16.80;98.70;;;;;;5069055;28;20554;-77
2022/07/06 08:08:03;;;;;;;0.35;0.10;;;16.90;98.30;;;;;;5082509;28;20127;-76
2022/07/06 08:10:29;;;;;;;1.15;0.25;;;16.90;98.40;;;;;;5087870;28;20130;-76
2022/07/06 08:12:55;;;;;;;2.30;0.20;;;17.00;98.00;;;;;;5071435;28;20120;-75
2022/07/06 08:15:21;;;;;;;0.55;0.10;;;16.90;97.90;;;;;;5088088;28;20029;-76
2022/07/06 08:17:46;;;;;;;0.43;0.20;;;16.80;98.10;;;;;;5102223;28;20508;-76
2022/07/06 08:20:12;;;;;;;0.13;0.10;;;16.70;98.00;;;;;;5102894;28;20044;-75
2022/07/06 08:22:38;;;;;;;0.28;0.10;;;16.60;97.70;;;;;;5045814;28;20047;-76
2022/07/06 08:25:06;;;;;;;0.52;0.20;;;16.50;97.80;;;;;;5060049;28;20115;-76
2022/07/06 08:27:31;;;;;;;1.23;0.22;;;16.40;97.70;;;;;;5046364;28;20094;-77
2022/07/06 08:29:57;;;;;;;0.25;0.20;;;16.30;97.90;;;;;;5093852;28;20452;-76
2022/07/06 08:32:22;;;;;;;0.15;0.10;;;16.30;98.00;;;;;;5100582;28;20044;-75
2022/07/06 08:34:48;;;;;;;0.10;0.10;;;16.30;98.00;;;;;;5044392;28;20028;-76
2022/07/06 08:37:14;;;;;;;0.30;0.20;;;16.30;98.00;;;;;;5067697;28;20079;-76
2022/07/06 08:39:40;;;;;;;0.10;0.10;;;16.30;97.10;;;;;;5100850;28;20104;-76
2022/07/06 08:42:07;;;;;;;0.00;0.00;;;16.40;96.10;;;;;;5097393;28;20090;-78
2022/07/06 08:44:36;;;;;;;0.52;0.10;;;16.50;96.00;;;;;;5098052;28;20079;-76
2022/07/06 08:47:05;;;;;;;0.45;0.20;;;16.60;94.40;;;;;;5067271;28;20040;-76
2022/07/06 08:49:32;;;;;;;0.43;0.10;;;16.60;94.30;;;;;;5067221;28;20035;-76
2022/07/06 08:51:57;;;;;;;0.22;0.10;;;16.60;94.80;;;;;;5065613;28;20071;-77
2022/07/06 08:54:24;;;;;;;1.15;0.20;;;16.70;94.60;;;;;;5047681;28;20489;-76
2022/07/06 08:56:50;;;;;;;1.23;0.20;;;16.70;94.40;;;;;;5062861;28;20040;-76
2022/07/06 08:59:16;;;;;;;0.22;0.10;;;16.80;94.20;;;;;;5079025;28;20079;-75
2022/07/06 09:01:44;;;;;;;0.13;0.10;;;16.80;94.00;;;;;;5047549;28;20241;-74
2022/07/06 09:04:12;;;;;;;1.60;0.13;;;16.90;94.00;;;;;;5044746;28;20047;-74
2022/07/06 09:06:42;;;;;;;0.10;0.00;;;16.90;93.70;;;;;;5066790;28;20036;-75
2022/07/06 09:09:09;;;;;;;0.20;0.10;;;17.00;93.60;;;;;;5083816;28;20048;-75
2022/07/06 09:11:35;;;;;;;0.20;0.10;;;17.00;93.60;;;;;;5065151;28;20040;-76
2022/07/06 09:14:01;;;;;;;0.20;0.10;;;17.10;93.90;;;;;;5049097;28;20060;-75
2022/07/06 09:16:29;;;;;;;0.22;0.10;;;17.20;93.90;;;;;;5067695;28;20075;-75
2022/07/06 09:18:56;;;;;;;0.20;0.10;;;17.30;93.40;;;;;;5064991;28;20048;-75
2022/07/06 09:21:31;;;;;;;0.10;0.00;;;17.30;93.20;;;;;;5062860;28;20503;-75
2022/07/06 09:23:59;;;;;;;1.95;0.30;;;17.40;92.90;;;;;;5047358;28;20040;-76
2022/07/06 09:26:25;;;;;;;0.17;0.05;;;17.50;93.20;;;;;;5061886;28;20505;-75
2022/07/06 09:28:51;;;;;;;2.55;0.10;;;17.70;92.50;;;;;;5066441;28;20028;-75
2022/07/06 09:31:17;;;;;;;0.10;0.10;;;17.60;92.40;;;;;;5067700;28;20051;-75
2022/07/06 09:34:01;;;;;;;0.10;0.10;;;17.70;92.80;;;;;;5065330;28;20028;-76
2022/07/06 09:36:43;;;;;;;0.10;0.10;;;17.70;91.20;;;;;;5060956;28;20044;-75
2022/07/06 09:39:28;;;;;;;0.00;0.00;;;17.70;90.30;;;;;;5046703;28;20044;-75
2022/07/06 09:41:59;;;;;;;0.10;0.10;;;17.70;89.60;;;;;;5058102;28;20052;-75
2022/07/06 09:44:31;;;;;;;0.43;0.15;;;17.80;91.30;;;;;;5064026;28;20029;-75
2022/07/06 09:47:02;;;;;;;0.22;0.10;;;18.00;91.50;;;;;;5062610;28;20060;-76
2022/07/06 09:49:27;;;;;;;0.10;0.10;;;18.10;91.10;;;;;;5061759;28;20051;-76
2022/07/06 09:51:56;;;;;;;0.32;0.22;;;18.20;90.90;;;;;;5061101;28;20033;-75
2022/07/06 09:54:21;;;;;;;0.43;0.13;;;18.10;90.20;;;;;;5050398;28;20060;-75
2022/07/06 09:56:50;;;;;;;0.17;0.10;;;18.10;90.80;;;;;;5059443;28;20055;-76
2022/07/06 09:59:21;;;;;;;0.30;0.10;;;18.10;91.00;;;;;;5046292;28;20040;-75
2022/07/06 10:01:50;;;;;;;0.20;0.10;;;18.10;91.30;;;;;;5059194;28;20383;-76
2022/07/06 10:04:18;;;;;;;0.17;0.10;;;18.20;91.10;;;;;;5063376;28;20028;-76
2022/07/06 10:06:44;;;;;;;0.20;0.10;;;18.20;90.90;;;;;;5059099;28;20123;-76
2022/07/06 10:09:11;;;;;;;0.95;0.13;;;18.30;90.40;;;;;;5061370;28;20050;-77
2022/07/06 10:11:42;;;;;;;1.38;0.17;;;18.30;90.50;;;;;;5052361;28;20065;-76
2022/07/06 10:14:08;;;;;;;0.10;0.10;;;18.20;89.10;;;;;;5062280;28;20040;-76
2022/07/06 10:16:38;;;;;;;0.20;0.10;;;18.20;90.70;;;;;;5048820;28;20040;-76
2022/07/06 10:19:08;;;;;;;0.70;0.10;;;18.20;90.40;;;;;;5060528;28;20455;-76
2022/07/06 10:21:40;;;;;;;0.00;0.00;;;18.10;89.60;;;;;;5060004;28;20048;-75
2022/07/06 10:24:07;;;;;;;1.33;0.20;;;18.00;89.50;;;;;;5061356;28;20044;-76
2022/07/06 10:26:34;;;;;;;0.52;0.10;;;18.00;90.40;;;;;;5060248;28;20073;-76
2022/07/06 10:29:04;;;;;;;0.40;0.10;;;18.00;90.30;;;;;;5056273;28;20049;-75
2022/07/06 10:31:30;;;;;;;0.10;0.10;;;18.10;90.30;;;;;;5063808;28;20063;-75
2022/07/06 10:33:58;;;;;;;0.30;0.10;;;18.20;89.50;;;;;;5057700;28;20116;-75
2022/07/06 10:36:25;;;;;;;0.70;0.20;;;18.20;88.80;;;;;;5056251;28;21274;-76
2022/07/06 10:38:52;;;;;;;4.55;0.28;;;18.10;88.70;;;;;;5088976;28;20029;-75
2022/07/06 10:41:19;;;;;;;2.85;0.22;;;18.10;89.00;;;;;;5060138;28;20036;-76
2022/07/06 10:43:46;;;;;;;0.20;0.15;;;18.20;89.20;;;;;;5057864;28;20083;-76
2022/07/06 10:46:13;;;;;;;0.22;0.10;;;18.30;89.50;;;;;;5041612;28;20033;-75
2022/07/06 10:48:40;;;;;;;0.10;0.00;;;18.40;89.40;;;;;;5059082;28;20055;-76
2022/07/06 10:51:06;;;;;;;0.40;0.17;;;18.40;89.10;;;;;;5062283;28;20113;-76
2022/07/06 10:53:34;;;;;;;0.10;0.10;;;18.60;88.80;;;;;;5060794;28;20351;-75
2022/07/06 10:56:05;;;;;;;0.10;0.10;;;18.60;87.70;;;;;;5056073;28;20044;-75
2022/07/06 10:58:51;;;;;;;0.50;0.10;;;18.50;87.20;;;;;;5058753;28;20036;-75
2022/07/06 11:01:18;;;;;;;0.30;0.10;;;18.40;82.00;;;;;;5057759;28;20053;-75
2022/07/06 11:03:49;;;;;;;0.35;0.10;;;18.40;88.40;;;;;;5057880;28;20032;-79
2022/07/06 11:06:18;;;;;;;0.20;0.20;;;18.50;87.80;;;;;;5059633;28;20037;-75
2022/07/06 11:08:46;;;;;;;0.35;0.10;;;18.50;87.60;;;;;;5053701;28;20040;-75
2022/07/06 11:11:16;;;;;;;0.85;0.20;;;18.50;88.40;;;;;;5057571;28;20037;-75
2022/07/06 11:13:59;;;;;;;1.20;0.10;;;18.50;87.30;;;;;;5057454;28;20044;-75
2022/07/06 11:16:26;;;;;;;2.03;0.30;;;18.50;85.40;;;;;;5092155;28;20036;-75
2022/07/06 11:19:13;;;;;;;4.95;0.52;;;18.50;87.20;;;;;;5057804;28;20090;-75
2022/07/06 11:21:47;;;;;;;0.00;0.00;;;18.50;85.40;;;;;;5069701;28;20047;-75
2022/07/06 11:24:26;;;;;;;0.88;0.35;;;18.60;87.00;;;;;;5074843;28;20410;-75
2022/07/06 11:26:53;;;;;;;0.38;0.20;;;18.60;88.40;;;;;;5095555;28;20101;-76
2022/07/06 11:29:21;;;;;;;1.85;0.15;;;18.80;89.10;;;;;;5076941;28;20063;-75
2022/07/06 11:31:52;;;;;;;0.40;0.10;;;18.80;87.80;;;;;;5060201;28;20217;-75
2022/07/06 11:34:24;;;;;;;0.35;0.20;;;18.90;87.20;;;;;;5063708;28;20048;-75
2022/07/06 11:36:58;;;;;;;0.35;0.13;;;19.00;87.50;;;;;;5061113;28;20486;-75
2022/07/06 11:39:30;;;;;;;0.75;0.20;;;19.10;86.10;;;;;;5055579;28;20025;-75
2022/07/06 11:41:56;;;;;;;0.80;0.10;;;19.10;84.80;;;;;;5057990;28;20039;-75
2022/07/06 11:44:22;;;;;;;0.65;0.10;;;19.00;85.30;;;;;;5060127;28;20131;-75
2022/07/06 11:46:48;;;;;;;0.17;0.10;;;18.90;86.00;;;;;;5064698;28;20152;-75
2022/07/06 11:49:15;;;;;;;2.10;0.20;;;19.00;86.00;;;;;;5059747;28;20045;-75
2022/07/06 11:51:42;;;;;;;1.55;0.47;;;19.00;85.20;;;;;;5042224;28;20040;-76
2022/07/06 11:54:13;;;;;;;0.73;0.28;;;19.00;85.40;;;;;;5062121;28;20048;-75
2022/07/06 11:56:49;;;;;;;0.20;0.10;;;19.10;85.40;;;;;;5045076;28;20490;-75
2022/07/06 11:59:19;;;;;;;0.80;0.25;;;19.20;82.20;;;;;;5073995;28;20040;-75
2022/07/06 12:01:45;;;;;;;1.45;0.40;;;19.20;83.80;;;;;;5059798;28;20070;-75
2022/07/06 12:04:11;;;;;;;0.10;0.08;;;19.30;84.60;;;;;;5093248;28;20449;-75
2022/07/06 12:06:36;;;;;;;0.75;0.15;;;19.30;83.00;;;;;;5072693;28;20040;-75
2022/07/06 12:09:04;;;;;;;0.88;0.20;;;19.30;83.00;;;;;;5061898;28;20119;-75
2022/07/06 12:11:32;;;;;;;0.20;0.20;;;19.20;83.40;;;;;;5059406;28;20112;-75
2022/07/06 12:14:00;;;;;;;0.13;0.10;;;19.20;83.40;;;;;;5094874;28;20047;-75
2022/07/06 12:16:36;;;;;;;0.88;0.15;;;19.30;84.30;;;;;;5093052;28;20111;-75
2022/07/06 12:19:03;;;;;;;0.10;0.10;;;19.20;80.20;;;;;;5059575;28;20064;-75
2022/07/06 12:21:30;;;;;;;0.15;0.10;;;19.20;84.00;;;;;;5059820;28;20047;-75
2022/07/06 12:23:55;;;;;;;0.88;0.13;;;19.30;85.20;;;;;;5060582;28;20413;-76
2022/07/06 12:26:28;;;;;;;0.85;0.20;;;19.30;84.10;;;;;;5058609;28;20033;-75
2022/07/06 12:29:09;;;;;;;0.60;0.15;;;19.30;82.80;;;;;;5044817;28;20128;-75
2022/07/06 12:31:37;;;;;;;0.55;0.20;;;19.30;83.30;;;;;;5092202;28;20024;-75
2022/07/06 12:34:04;;;;;;;0.57;0.30;;;19.40;84.10;;;;;;5044313;28;20375;-75
2022/07/06 12:36:30;;;;;;;0.45;0.10;;;19.50;83.10;;;;;;5059151;28;20040;-75
2022/07/06 12:38:55;;;;;;;0.03;0.00;;;19.60;83.00;;;;;;5073575;28;20041;-75
2022/07/06 12:41:33;;;;;;;0.28;0.10;;;19.70;82.50;;;;;;5056533;28;20036;-75
2022/07/06 12:44:07;;;;;;;0.35;0.10;;;19.70;80.60;;;;;;5061583;28;20041;-75
2022/07/06 12:46:41;;;;;;;1.55;0.28;;;19.70;81.70;;;;;;5053458;28;20041;-75
2022/07/06 12:49:18;;;;;;;0.60;0.30;;;19.80;77.00;;;;;;5059069;28;20032;-75
2022/07/06 12:52:00;;;;;;;0.52;0.10;;;19.70;76.30;;;;;;5039287;28;20105;-75